Date,TemperatureHighF,TemperatureAvgF,TemperatureLowF,DewpointHighF,DewpointAvgF,DewpointLowF,HumidityHigh,HumidityAvg,HumidityLow,PressureMaxIn,PressureMinIn,WindSpeedMaxMPH,WindSpeedAvgMPH,GustSpeedMaxMPH,PrecipitationSumIn
2014-1-1,26.7,21.0,12.3,19.0,12.2,8.0,89,70,48,29.88,29.72,3,0,6,0.00
2014-1-2,22.6,17.1,6.5,19.0,14.5,4.0,92,89,82,29.81,29.25,5,1,11,0.00
2014-1-3,12.5,6.0,-3.4,7.0,0.8,-8.0,90,79,58,29.92,29.16,6,1,18,0.00
2014-1-4,24.3,7.1,-10.9,12.0,1.3,-14.0,90,78,54,30.00,29.80,6,0,13,0.00
2014-1-5,45.6,21.9,4.6,46.0,20.4,2.0,100,93,79,29.83,29.37,2,0,8,0.00
2014-1-6,56.6,43.3,26.8,57.0,41.8,20.0,100,94,73,29.36,28.88,6,1,14,0.89
2014-1-7,27.5,9.3,4.3,22.0,-1.6,-8.0,89,62,49,29.78,29.06,8,1,15,0.00
2014-1-8,17.6,9.4,0.9,6.0,0.3,-6.0,82,67,53,29.98,29.78,2,0,4,0.00
2014-1-9,26.2,14.4,6.5,15.0,8.7,4.0,91,79,54,30.14,29.94,3,0,7,0.00
2014-1-10,33.4,24.6,9.0,32.0,23.3,7.0,99,94,90,30.08,29.75,1,0,1,0.00
2014-1-11,57.1,48.7,32.3,57.0,48.7,32.0,100,100,99,29.75,28.85,9,1,18,1.08
2014-1-12,49.4,39.6,28.2,49.0,33.9,27.0,100,81,62,29.53,28.87,10,1,16,0.02
2014-1-13,45.8,35.4,23.1,42.0,32.0,22.0,98,88,65,29.65,29.44,4,0,12,0.00
2014-1-14,46.0,43.9,39.6,45.0,43.0,39.0,100,96,88,29.43,29.17,2,0,7,0.63
2014-1-15,44.4,34.5,28.0,40.0,33.2,28.0,100,95,74,29.53,29.32,5,0,6,0.01
2014-1-16,39.6,35.3,31.6,38.0,34.8,31.0,100,98,93,29.43,29.35,1,0,2,0.00
2014-1-17,39.1,31.3,23.7,35.0,28.2,23.0,100,89,56,29.50,29.42,2,0,16,0.00
2014-1-18,36.9,32.4,28.7,36.0,31.4,26.0,99,96,88,29.41,29.11,2,0,5,0.01
2014-1-19,32.1,28.5,25.1,26.0,23.0,21.0,91,80,67,29.27,29.11,3,0,10,0.00
2014-1-20,41.4,32.9,23.5,30.0,24.8,12.0,87,73,57,29.39,29.04,6,1,15,0.00
2014-1-21,23.2,15.2,8.5,12.0,7.9,3.0,91,74,53,29.52,29.31,3,0,7,0.00
2014-1-22,13.6,7.4,2.8,5.0,-2.5,-7.0,88,65,45,29.40,29.18,4,0,8,0.00
2014-1-23,16.4,6.6,-0.6,1.0,-3.0,-6.0,85,66,44,29.70,29.41,2,0,7,0.00
2014-1-24,14.7,6.7,0.9,3.0,-1.2,-4.0,86,71,46,29.80,29.57,4,0,10,0.00
2014-1-25,33.4,22.5,5.8,23.0,16.4,2.0,94,78,60,29.56,28.90,8,1,29,0.00
2014-1-26,19.3,16.2,11.9,16.0,6.8,-2.0,93,68,41,29.37,28.91,5,1,14,0.00
2014-1-27,40.7,27.9,17.1,35.0,18.5,-5.0,97,70,35,29.52,29.09,3,1,10,0.05
2014-1-28,17.2,13.5,8.8,1.0,-3.9,-7.0,58,46,35,29.81,29.53,4,0,10,0.00
2014-1-29,21.8,14.9,10.6,9.0,2.9,-2.0,87,61,38,29.73,29.51,3,0,6,0.00
2014-1-30,25.9,13.3,0.4,10.0,3.6,-3.0,91,68,37,29.93,29.68,4,0,11,0.00
2014-1-31,39.3,28.4,9.6,26.0,18.3,7.0,94,68,39,29.73,29.55,3,0,5,0.00
2014-2-1,42.6,33.8,28.2,30.0,25.5,22.0,96,74,47,29.84,29.55,5,0,10,0.00
2014-2-2,50.1,39.0,31.4,40.0,35.3,30.0,99,87,61,29.59,29.40,1,0,5,0.01
2014-2-3,35.5,30.4,21.0,31.0,28.2,20.0,97,92,80,29.79,29.58,3,0,3,0.00
2014-2-4,32.7,22.4,10.1,27.0,19.7,9.0,96,90,72,29.95,29.78,0,0,0,0.00
2014-2-5,32.1,27.1,22.7,31.0,26.2,22.0,97,96,93,29.80,29.13,0,0,3,0.00
2014-2-6,25.9,20.5,10.2,23.0,15.9,8.0,95,83,57,29.76,29.44,1,0,9,0.00
2014-2-7,28.3,15.6,2.1,16.0,10.2,0.0,94,81,53,29.78,29.68,2,0,6,0.00
2014-2-8,27.3,17.3,2.5,16.0,8.2,0.0,92,70,38,29.80,29.61,2,0,4,0.00
2014-2-9,30.2,21.6,12.1,20.0,12.2,7.0,93,69,42,29.65,29.45,2,0,6,0.00
2014-2-10,25.8,19.2,5.4,19.0,10.4,1.0,95,70,47,29.73,29.43,6,1,9,0.00
2014-2-11,22.6,11.9,-2.9,7.0,2.7,-6.0,92,69,47,29.93,29.73,4,1,8,0.00
2014-2-12,24.3,14.3,2.4,16.0,3.5,-3.0,83,65,32,30.04,29.83,3,0,7,0.00
2014-2-13,32.8,28.7,20.5,32.0,27.6,16.0,98,95,83,29.82,28.53,3,0,8,0.00
2014-2-14,36.4,30.9,24.8,32.0,28.0,23.0,98,89,74,29.28,28.42,0,0,0,0.02
2014-2-15,33.8,27.0,19.7,29.0,24.8,19.0,97,91,68,29.33,29.04,0,0,0,0.00
2014-2-16,29.0,23.4,17.3,25.0,14.1,9.0,88,69,49,29.51,29.07,0,0,0,0.00
2014-2-17,26.9,16.0,4.7,8.0,2.1,-2.0,84,57,30,29.85,29.51,0,0,0,0.00
2014-2-18,32.0,18.4,4.2,30.0,14.9,0.0,95,86,60,29.84,29.41,0,0,0,0.00
2014-2-19,36.9,24.2,6.4,36.0,22.9,4.0,99,95,87,29.61,29.20,1,0,2,1.66
2014-2-20,33.3,32.3,31.4,33.0,32.1,31.0,99,99,99,29.49,29.40,0,0,4,0.01